createdAt,value
2023-02-28T00:01:34.722Z,68.19
2023-02-28T00:04:02.254Z,68.56
2023-02-28T00:06:29.571Z,68.86
2023-02-28T00:08:56.891Z,68.99
2023-02-28T00:11:24.425Z,69.12
2023-02-28T00:13:51.687Z,68.82
2023-02-28T00:16:21.141Z,68.72
2023-02-28T00:18:50.033Z,68.98
2023-02-28T00:21:18.967Z,68.64
2023-02-28T00:23:46.659Z,68.91
2023-02-28T00:26:14.020Z,69.01
2023-02-28T00:28:45.447Z,69.33
2023-02-28T00:31:12.651Z,70.11
2023-02-28T00:33:40.283Z,69.56
2023-02-28T00:36:10.427Z,69.49
2023-02-28T00:38:39.234Z,69.36
2023-02-28T00:41:06.871Z,69.52
2023-02-28T00:43:36.420Z,69.79
2023-02-28T00:46:05.124Z,70.02
2023-02-28T00:48:33.041Z,70.46
2023-02-28T00:51:00.048Z,70.20
2023-02-28T00:53:27.441Z,70.51
2023-02-28T00:55:54.476Z,70.28
2023-02-28T00:58:21.737Z,70.41
2023-02-28T01:00:50.092Z,70.87
2023-02-28T01:03:18.750Z,71.18
2023-02-28T01:05:46.458Z,71.32
2023-02-28T01:08:14.941Z,71.37
2023-02-28T01:10:42.258Z,71.75
2023-02-28T01:13:09.688Z,71.92
2023-02-28T01:15:38.191Z,72.13
2023-02-28T01:18:05.843Z,72.13
2023-02-28T01:20:32.848Z,72.51
2023-02-28T01:23:00.356Z,72.72
2023-02-28T01:25:27.901Z,72.65
2023-02-28T01:27:55.488Z,72.94
2023-02-28T01:30:22.536Z,72.75
2023-02-28T01:32:51.154Z,73.05
2023-02-28T01:35:19.026Z,73.30
2023-02-28T01:37:46.623Z,73.33
2023-02-28T01:40:14.237Z,73.57
2023-02-28T01:42:41.544Z,73.68
2023-02-28T01:45:20.550Z,73.61
2023-02-28T01:47:51.800Z,73.88
2023-02-28T01:50:23.543Z,73.89
2023-02-28T01:52:55.932Z,73.92
2023-02-28T01:55:29.511Z,73.75
2023-02-28T01:58:03.353Z,73.64
2023-02-28T02:00:31.475Z,73.94
2023-02-28T02:03:00.922Z,73.80
2023-02-28T02:05:35.504Z,73.87
2023-02-28T02:08:06.364Z,74.17
2023-02-28T02:10:52.190Z,74.11
2023-02-28T02:13:22.478Z,73.92
2023-02-28T02:16:35.042Z,74.39
2023-02-28T02:19:23.792Z,74.39
2023-02-28T02:22:28.772Z,74.73
2023-02-28T02:25:29.435Z,74.46
2023-02-28T02:28:33.572Z,74.88
2023-02-28T02:31:21.334Z,74.84
2023-02-28T02:34:31.681Z,75.12
2023-02-28T02:37:32.345Z,75.51
2023-02-28T02:40:03.876Z,75.57
2023-02-28T02:42:37.128Z,75.30
2023-02-28T02:45:10.682Z,75.51
2023-02-28T02:47:40.245Z,75.36
2023-02-28T02:50:13.556Z,75.21
2023-02-28T02:52:49.415Z,75.50
2023-02-28T02:55:19.358Z,75.94
2023-02-28T02:57:54.736Z,76.02
2023-02-28T03:00:29.222Z,76.06
2023-02-28T03:02:58.016Z,76.17
2023-02-28T03:05:29.738Z,76.20
2023-02-28T03:07:57.306Z,76.18
2023-02-28T03:10:51.942Z,75.77
2023-02-28T03:13:31.621Z,75.90
2023-02-28T03:16:26.790Z,75.93
2023-02-28T03:19:08.371Z,75.82
2023-02-28T03:21:44.705Z,75.35
2023-02-28T03:24:24.128Z,75.26
2023-02-28T03:27:01.805Z,75.37
2023-02-28T03:29:36.152Z,75.39
2023-02-28T03:32:15.861Z,75.34
2023-02-28T03:34:49.774Z,75.73
2023-02-28T03:37:21.725Z,75.71
2023-02-28T03:40:02.197Z,75.84
2023-02-28T03:42:32.901Z,75.73
2023-02-28T03:45:24.010Z,75.75
2023-02-28T03:47:56.076Z,75.87
2023-02-28T03:50:24.951Z,75.86
2023-02-28T03:53:02.229Z,76.06
2023-02-28T03:55:35.448Z,76.31
2023-02-28T03:58:15.939Z,76.35
2023-02-28T04:00:50.689Z,76.33
2023-02-28T04:03:18.139Z,76.68
2023-02-28T04:05:51.728Z,76.69
2023-02-28T04:08:18.836Z,76.56
2023-02-28T04:10:52.664Z,76.84
2023-02-28T04:13:19.978Z,76.91
2023-02-28T04:15:47.373Z,76.85
2023-02-28T04:18:14.713Z,77.04
2023-02-28T04:20:42.556Z,76.85
2023-02-28T04:23:09.548Z,77.04
2023-02-28T04:25:36.856Z,77.00
2023-02-28T04:28:03.928Z,76.75
2023-02-28T04:30:33.579Z,76.85
2023-02-28T04:33:03.119Z,76.76
2023-02-28T04:35:30.603Z,76.81
2023-02-28T04:37:57.752Z,77.17
2023-02-28T04:40:24.966Z,77.06
2023-02-28T04:42:52.106Z,77.18
2023-02-28T04:45:19.250Z,77.12
2023-02-28T04:47:46.187Z,77.43
2023-02-28T04:50:13.439Z,77.12
2023-02-28T04:52:40.565Z,77.47
2023-02-28T04:55:08.458Z,77.56
2023-02-28T04:57:35.633Z,77.35
2023-02-28T05:00:06.059Z,77.44
2023-02-28T05:02:36.047Z,77.55
2023-02-28T05:05:03.556Z,77.68
2023-02-28T05:07:30.575Z,77.67
2023-02-28T05:09:57.811Z,77.82
2023-02-28T05:12:24.942Z,77.62
2023-02-28T05:14:52.151Z,77.83
2023-02-28T05:17:19.144Z,78.06
2023-02-28T05:19:46.350Z,77.90
2023-02-28T05:22:16.544Z,78.01
2023-02-28T05:24:44.072Z,78.25
2023-02-28T05:27:11.532Z,78.54
2023-02-28T05:29:42.874Z,78.44
2023-02-28T05:32:11.650Z,78.51
2023-02-28T05:34:40.246Z,78.37
2023-02-28T05:37:12.222Z,78.32
2023-02-28T05:39:39.730Z,78.45
2023-02-28T05:42:07.822Z,78.45
2023-02-28T05:44:35.278Z,78.40
2023-02-28T05:47:02.467Z,78.39
2023-02-28T05:49:30.246Z,78.55
2023-02-28T05:51:57.184Z,78.54
2023-02-28T05:54:24.752Z,78.47
2023-02-28T05:56:51.654Z,78.20
2023-02-28T05:59:19.312Z,78.17
2023-02-28T06:01:50.683Z,78.27
2023-02-28T06:04:32.564Z,78.11
2023-02-28T06:06:59.921Z,77.65
2023-02-28T06:09:27.197Z,77.67
2023-02-28T06:11:55.166Z,77.45
2023-02-28T06:14:22.454Z,77.14
2023-02-28T06:16:49.976Z,77.17
2023-02-28T06:19:17.899Z,77.19
2023-02-28T06:21:46.300Z,76.94
2023-02-28T06:24:13.946Z,76.50
2023-02-28T06:26:40.905Z,76.51
2023-02-28T06:29:08.559Z,76.22
2023-02-28T06:31:35.777Z,76.25
2023-02-28T06:34:04.105Z,75.86
2023-02-28T06:36:31.469Z,75.50
2023-02-28T06:38:59.017Z,75.36
2023-02-28T06:41:28.560Z,74.27
2023-02-28T06:43:56.723Z,74.76
2023-02-28T06:46:24.483Z,74.92
2023-02-28T06:48:52.102Z,73.35
2023-02-28T06:51:23.331Z,73.20
2023-02-28T06:53:52.128Z,73.50
2023-02-28T06:56:19.640Z,72.45
2023-02-28T06:58:51.376Z,72.77
2023-02-28T07:01:18.485Z,72.86
2023-02-28T07:03:47.328Z,72.04
2023-02-28T07:06:14.512Z,71.47
2023-02-28T07:08:42.347Z,71.31
2023-02-28T07:11:09.316Z,70.71
2023-02-28T07:13:37.578Z,70.54
2023-02-28T07:16:06.852Z,70.29
2023-02-28T07:18:34.898Z,69.90
2023-02-28T07:21:07.636Z,69.46
2023-02-28T07:23:35.278Z,69.13
2023-02-28T07:26:02.932Z,68.74
2023-02-28T07:28:30.653Z,68.72
2023-02-28T07:30:57.959Z,68.88
2023-02-28T07:33:25.492Z,68.50
2023-02-28T07:35:52.409Z,67.92
2023-02-28T07:38:19.880Z,67.21
2023-02-28T07:40:46.956Z,66.91
2023-02-28T07:43:14.223Z,66.18
2023-02-28T07:45:41.280Z,65.76
2023-02-28T07:48:11.241Z,65.42
2023-02-28T07:50:38.779Z,65.70
2023-02-28T07:53:05.955Z,64.67
2023-02-28T07:55:33.786Z,64.66
2023-02-28T07:58:01.870Z,63.42
2023-02-28T08:00:30.120Z,62.97
2023-02-28T08:02:57.690Z,62.50
2023-02-28T08:05:24.878Z,61.92
2023-02-28T08:07:52.329Z,62.40
2023-02-28T08:10:19.545Z,61.89
2023-02-28T08:12:46.926Z,61.78
2023-02-28T08:15:14.110Z,61.86
2023-02-28T08:17:41.493Z,60.80
2023-02-28T08:20:10.276Z,60.98
2023-02-28T08:22:37.546Z,60.75
2023-02-28T08:25:05.236Z,60.33
2023-02-28T08:27:32.437Z,59.96
2023-02-28T08:30:00.505Z,59.91
2023-02-28T08:32:30.142Z,58.64
2023-02-28T08:34:57.982Z,58.64
2023-02-28T08:37:25.599Z,58.09
2023-02-28T08:39:56.002Z,58.67
2023-02-28T08:42:24.851Z,58.93
2023-02-28T08:44:51.916Z,58.67
2023-02-28T08:47:19.649Z,58.89
2023-02-28T08:49:47.442Z,58.82
2023-02-28T08:52:15.275Z,58.63
2023-02-28T08:54:42.379Z,58.18
2023-02-28T08:57:09.766Z,57.81
2023-02-28T08:59:37.101Z,57.98
2023-02-28T09:02:04.723Z,57.67
2023-02-28T09:04:32.148Z,58.11
2023-02-28T09:06:59.522Z,57.65
2023-02-28T09:09:26.713Z,57.66
2023-02-28T09:11:56.872Z,57.22
2023-02-28T09:14:23.896Z,57.64
2023-02-28T09:16:53.442Z,57.30
2023-02-28T09:19:20.398Z,56.72
2023-02-28T09:21:47.811Z,57.23
2023-02-28T09:24:16.246Z,57.50
2023-02-28T09:26:56.312Z,56.26
2023-02-28T09:29:24.054Z,55.73
2023-02-28T09:31:51.282Z,55.89
2023-02-28T09:34:18.928Z,56.44
2023-02-28T09:36:46.980Z,56.63
2023-02-28T09:39:17.340Z,56.68
2023-02-28T09:41:51.538Z,56.19
2023-02-28T09:44:45.272Z,56.41
2023-02-28T09:47:19.809Z,56.21
2023-02-28T09:49:48.870Z,56.13
2023-02-28T09:52:33.010Z,56.08
2023-02-28T09:55:35.399Z,55.85
2023-02-28T09:58:37.827Z,54.35
2023-02-28T10:01:12.877Z,54.82
2023-02-28T10:03:45.530Z,54.48
2023-02-28T10:06:27.093Z,54.84
2023-02-28T10:09:02.581Z,53.99
2023-02-28T10:11:33.338Z,54.06
2023-02-28T10:14:22.923Z,54.46
2023-02-28T10:16:56.234Z,53.56
2023-02-28T10:19:33.641Z,53.28
2023-02-28T10:22:05.876Z,53.41
2023-02-28T10:24:40.010Z,53.05
2023-02-28T10:27:24.773Z,53.22
2023-02-28T10:29:55.392Z,53.05
2023-02-28T10:32:34.645Z,53.49
2023-02-28T10:35:08.373Z,53.02
2023-02-28T10:37:41.900Z,53.01
2023-02-28T10:40:33.504Z,53.27
2023-02-28T10:43:20.774Z,53.12
2023-02-28T10:46:11.876Z,52.82
2023-02-28T10:48:46.047Z,52.75
2023-02-28T10:51:16.086Z,52.82
2023-02-28T10:54:01.155Z,53.11
2023-02-28T10:56:30.312Z,53.45
2023-02-28T10:59:16.302Z,53.25
2023-02-28T11:01:47.237Z,52.29
2023-02-28T11:04:23.146Z,52.94
2023-02-28T11:07:01.822Z,52.85
2023-02-28T11:09:39.779Z,52.91
2023-02-28T11:12:18.119Z,52.48
2023-02-28T11:14:52.190Z,52.80
2023-02-28T11:17:28.716Z,52.08
2023-02-28T11:20:00.856Z,52.50
2023-02-28T11:22:32.237Z,51.28
2023-02-28T11:25:11.262Z,51.30
2023-02-28T11:27:38.542Z,51.61
2023-02-28T11:30:29.500Z,51.39
2023-02-28T11:33:01.450Z,52.46
2023-02-28T11:35:41.235Z,52.66
2023-02-28T11:38:19.422Z,52.13
2023-02-28T11:41:09.364Z,52.05
2023-02-28T11:43:51.706Z,52.22
2023-02-28T11:46:42.644Z,52.11
2023-02-28T11:49:49.606Z,51.99
2023-02-28T11:52:41.405Z,51.33
2023-02-28T11:55:21.785Z,51.99
2023-02-28T11:58:12.060Z,52.65
2023-02-28T12:01:20.852Z,50.83
2023-02-28T12:04:11.529Z,51.91
2023-02-28T12:07:00.452Z,51.23
2023-02-28T12:10:08.350Z,52.11
2023-02-28T12:13:07.920Z,51.79
2023-02-28T12:16:04.608Z,51.52
2023-02-28T12:19:01.161Z,50.87
2023-02-28T12:21:47.463Z,51.33
2023-02-28T12:24:49.463Z,51.67
2023-02-28T12:27:22.691Z,51.78
2023-02-28T12:30:05.519Z,51.79
2023-02-28T12:32:45.179Z,50.33
2023-02-28T12:35:22.552Z,50.21
2023-02-28T12:37:58.796Z,50.19
2023-02-28T12:40:55.247Z,50.52
2023-02-28T12:43:34.170Z,50.96
2023-02-28T12:46:30.499Z,51.31
2023-02-28T12:49:07.787Z,50.98
2023-02-28T12:51:38.003Z,50.31
2023-02-28T12:54:28.916Z,50.21
2023-02-28T12:57:10.610Z,49.77
2023-02-28T12:59:54.631Z,50.20
2023-02-28T13:02:42.239Z,49.59
2023-02-28T13:05:41.728Z,49.33
2023-02-28T13:08:40.028Z,49.98
2023-02-28T13:11:33.397Z,50.36
2023-02-28T13:14:05.977Z,49.88
2023-02-28T13:17:12.064Z,49.48
2023-02-28T13:19:55.362Z,49.86
2023-02-28T13:22:27.119Z,49.89
2023-02-28T13:25:00.302Z,48.72
2023-02-28T13:27:43.734Z,49.01
2023-02-28T13:31:02.436Z,49.38
2023-02-28T13:33:45.319Z,49.22
2023-02-28T13:36:16.683Z,49.56
2023-02-28T13:38:54.428Z,49.17
2023-02-28T13:41:34.649Z,49.64
2023-02-28T13:44:11.319Z,49.27
2023-02-28T13:46:51.988Z,49.74
2023-02-28T13:49:24.349Z,49.91
2023-02-28T13:52:05.474Z,49.15
2023-02-28T13:54:46.196Z,49.62
2023-02-28T13:57:45.502Z,50.07
2023-02-28T14:00:32.171Z,49.84
2023-02-28T14:03:29.782Z,49.86
2023-02-28T14:06:19.196Z,50.11
2023-02-28T14:09:01.131Z,50.06
2023-02-28T14:11:38.458Z,49.36
2023-02-28T14:14:30.922Z,49.58
2023-02-28T14:17:02.114Z,49.50
2023-02-28T14:19:32.800Z,49.82
2023-02-28T14:22:06.554Z,49.06
2023-02-28T14:24:56.973Z,49.22
2023-02-28T14:27:45.127Z,49.84
2023-02-28T14:30:43.803Z,49.75
2023-02-28T14:33:34.082Z,49.91
2023-02-28T14:36:21.564Z,50.39
2023-02-28T14:38:56.285Z,50.79
2023-02-28T14:41:32.206Z,50.90
2023-02-28T14:44:16.020Z,50.30
2023-02-28T14:46:47.573Z,50.91
2023-02-28T14:49:21.893Z,50.84
2023-02-28T14:52:03.529Z,51.13
2023-02-28T14:54:34.891Z,51.73
2023-02-28T14:57:06.367Z,51.85
2023-02-28T14:59:36.745Z,51.39
2023-02-28T15:02:24.115Z,51.85
2023-02-28T15:05:03.369Z,51.76
2023-02-28T15:07:32.796Z,51.36
2023-02-28T15:10:29.521Z,51.57
2023-02-28T15:13:05.747Z,51.39
2023-02-28T15:16:01.254Z,51.87
2023-02-28T15:18:53.982Z,52.91
2023-02-28T15:21:26.725Z,53.04
2023-02-28T15:24:32.751Z,53.33
2023-02-28T15:27:19.017Z,54.25
2023-02-28T15:29:57.975Z,54.37
2023-02-28T15:32:31.196Z,55.03
2023-02-28T15:35:25.978Z,54.87
2023-02-28T15:38:03.470Z,54.85
2023-02-28T15:40:45.513Z,54.75
2023-02-28T15:43:26.120Z,55.45
2023-02-28T15:46:03.133Z,55.36
2023-02-28T15:48:41.125Z,55.66
2023-02-28T15:51:18.867Z,55.93
2023-02-28T15:53:58.203Z,56.10
2023-02-28T15:56:33.920Z,56.61
2023-02-28T15:59:08.615Z,56.08
2023-02-28T16:01:39.597Z,56.08
2023-02-28T16:04:22.063Z,56.56
2023-02-28T16:07:17.646Z,56.87
2023-02-28T16:09:50.143Z,56.76
2023-02-28T16:12:21.853Z,56.85
2023-02-28T16:14:55.607Z,57.25
2023-02-28T16:17:32.026Z,57.50
2023-02-28T16:20:03.689Z,57.44
2023-02-28T16:22:32.854Z,57.64
2023-02-28T16:25:07.179Z,58.09
2023-02-28T16:27:38.449Z,58.86
2023-02-28T16:30:11.439Z,59.85
2023-02-28T16:32:40.839Z,60.17
2023-02-28T16:35:13.964Z,60.70
2023-02-28T16:37:43.380Z,61.33
2023-02-28T16:40:20.206Z,61.31
2023-02-28T16:42:54.437Z,61.51
2023-02-28T16:45:26.181Z,61.68
2023-02-28T16:47:58.709Z,61.62
2023-02-28T16:50:33.026Z,61.87
2023-02-28T16:53:04.484Z,61.67
2023-02-28T16:55:33.964Z,62.50
2023-02-28T16:58:03.936Z,62.83
2023-02-28T17:00:36.539Z,62.53
2023-02-28T17:03:07.491Z,62.74
2023-02-28T17:05:41.619Z,62.57
2023-02-28T17:08:13.998Z,63.11
2023-02-28T17:10:45.210Z,63.30
2023-02-28T17:13:17.033Z,63.71
2023-02-28T17:15:49.682Z,63.96
2023-02-28T17:18:22.112Z,64.30
2023-02-28T17:20:53.428Z,64.27
2023-02-28T17:23:22.688Z,64.42
2023-02-28T17:25:58.058Z,64.92
2023-02-28T17:28:31.766Z,64.96
2023-02-28T17:31:00.772Z,65.25
2023-02-28T17:33:32.041Z,65.66
2023-02-28T17:36:01.007Z,66.00
2023-02-28T17:38:30.314Z,67.25
2023-02-28T17:40:59.394Z,67.67
2023-02-28T17:43:32.739Z,67.50
2023-02-28T17:46:01.671Z,67.72
2023-02-28T17:48:33.144Z,67.95
2023-02-28T17:51:04.092Z,67.92
2023-02-28T17:53:33.409Z,67.79
2023-02-28T17:56:02.497Z,68.37
2023-02-28T17:58:35.088Z,68.29
2023-02-28T18:01:06.288Z,68.55
2023-02-28T18:03:36.024Z,69.06
2023-02-28T18:06:07.629Z,69.48
2023-02-28T18:08:36.987Z,69.71
2023-02-28T18:11:08.048Z,69.97
2023-02-28T18:13:37.294Z,70.25
2023-02-28T18:16:08.582Z,70.34
2023-02-28T18:18:40.699Z,70.45
2023-02-28T18:21:14.099Z,70.54
2023-02-28T18:23:50.491Z,70.65
2023-02-28T18:26:20.452Z,70.98
2023-02-28T18:28:52.265Z,71.32
2023-02-28T18:31:21.321Z,71.36
2023-02-28T18:33:54.196Z,71.01
2023-02-28T18:36:23.453Z,71.53
2023-02-28T18:38:55.790Z,71.86
2023-02-28T18:41:28.963Z,71.22
2023-02-28T18:44:03.062Z,71.09
2023-02-28T18:46:36.961Z,71.40
2023-02-28T18:49:08.551Z,71.37
2023-02-28T18:51:38.052Z,71.57
2023-02-28T18:54:07.464Z,71.70
2023-02-28T18:56:38.358Z,71.63
2023-02-28T18:59:07.619Z,71.93
2023-02-28T19:01:38.984Z,71.89
2023-02-28T19:04:14.727Z,72.26
2023-02-28T19:06:45.993Z,72.69
2023-02-28T19:09:15.292Z,72.70
2023-02-28T19:11:46.272Z,72.61
2023-02-28T19:14:15.845Z,72.70
2023-02-28T19:16:47.154Z,72.80
2023-02-28T19:19:16.424Z,72.76
2023-02-28T19:21:47.282Z,73.69
2023-02-28T19:24:16.444Z,74.13
2023-02-28T19:26:47.609Z,73.58
2023-02-28T19:29:16.807Z,73.88
2023-02-28T19:31:48.248Z,73.92
2023-02-28T19:34:17.804Z,74.17
2023-02-28T19:36:48.827Z,74.25
2023-02-28T19:39:18.928Z,74.39
2023-02-28T19:41:51.904Z,74.57
2023-02-28T19:44:21.110Z,75.10
2023-02-28T19:46:54.849Z,75.87
2023-02-28T19:49:26.004Z,75.87
2023-02-28T19:51:57.461Z,76.35
2023-02-28T19:54:27.772Z,76.79
2023-02-28T19:56:59.535Z,76.64
2023-02-28T19:59:38.203Z,76.87
2023-02-28T20:02:19.583Z,76.37
2023-02-28T20:04:52.792Z,76.54
2023-02-28T20:07:21.878Z,77.30
2023-02-28T20:09:51.082Z,77.31
2023-02-28T20:12:25.212Z,77.48
2023-02-28T20:15:00.278Z,77.86
2023-02-28T20:17:30.472Z,77.63
2023-02-28T20:19:59.814Z,77.54
2023-02-28T20:22:28.818Z,77.76
2023-02-28T20:25:00.523Z,77.54
2023-02-28T20:27:31.800Z,77.31
2023-02-28T20:30:02.146Z,77.28
2023-02-28T20:32:33.228Z,77.26
2023-02-28T20:35:00.560Z,77.34
2023-02-28T20:37:31.653Z,77.45
2023-02-28T20:40:00.989Z,77.30
2023-02-28T20:42:32.247Z,77.61
2023-02-28T20:45:02.027Z,77.38
2023-02-28T20:47:35.026Z,77.90
2023-02-28T20:50:06.608Z,78.17
2023-02-28T20:52:35.700Z,78.34
2023-02-28T20:55:07.850Z,78.62
2023-02-28T20:57:37.025Z,78.41
2023-02-28T21:00:21.416Z,78.59
2023-02-28T21:02:50.396Z,77.59
2023-02-28T21:05:21.981Z,77.74
2023-02-28T21:07:53.174Z,77.62
2023-02-28T21:10:24.408Z,78.08
2023-02-28T21:12:55.594Z,78.40
2023-02-28T21:15:27.501Z,77.79
2023-02-28T21:17:57.009Z,78.17
2023-02-28T21:20:29.373Z,78.48
2023-02-28T21:22:58.329Z,78.72
2023-02-28T21:25:27.921Z,79.42
2023-02-28T21:27:57.369Z,79.45
2023-02-28T21:30:24.597Z,79.65
2023-02-28T21:32:55.635Z,79.75
2023-02-28T21:35:24.878Z,79.64
2023-02-28T21:37:58.073Z,79.79
2023-02-28T21:40:29.455Z,79.90
2023-02-28T21:43:00.423Z,80.28
2023-02-28T21:45:31.733Z,80.42
2023-02-28T21:48:02.788Z,80.65
2023-02-28T21:50:31.941Z,80.71
2023-02-28T21:53:02.887Z,80.89
2023-02-28T21:55:37.024Z,81.08
2023-02-28T21:58:08.035Z,81.25
2023-02-28T22:00:37.939Z,80.89
2023-02-28T22:03:09.946Z,80.92
2023-02-28T22:05:40.008Z,81.21
2023-02-28T22:08:11.304Z,81.94
2023-02-28T22:10:42.571Z,81.86
2023-02-28T22:13:09.636Z,82.03
2023-02-28T22:15:41.217Z,82.28
2023-02-28T22:18:12.257Z,82.20
2023-02-28T22:20:41.495Z,82.77
2023-02-28T22:23:10.591Z,82.66
2023-02-28T22:25:39.780Z,82.58
2023-02-28T22:28:12.703Z,81.89
2023-02-28T22:30:42.439Z,82.16
2023-02-28T22:33:13.599Z,82.54
2023-02-28T22:35:43.139Z,82.42
2023-02-28T22:38:14.668Z,82.63
2023-02-28T22:40:46.413Z,82.72
2023-02-28T22:43:15.217Z,82.86
2023-02-28T22:45:46.550Z,82.86
2023-02-28T22:48:13.428Z,83.31
2023-02-28T22:50:44.837Z,83.26
2023-02-28T22:53:14.058Z,83.11
2023-02-28T22:55:45.238Z,82.73
2023-02-28T22:58:16.248Z,83.16
2023-02-28T23:00:45.463Z,83.07
2023-02-28T23:03:16.597Z,83.14
2023-02-28T23:05:48.034Z,83.44
2023-02-28T23:08:23.273Z,83.52
2023-02-28T23:10:54.986Z,83.46
2023-02-28T23:13:25.842Z,83.36
2023-02-28T23:15:52.991Z,84.19
2023-02-28T23:18:24.023Z,84.24
2023-02-28T23:20:57.539Z,84.32
2023-02-28T23:23:29.440Z,84.79
2023-02-28T23:26:00.595Z,84.55
2023-02-28T23:28:27.535Z,85.17
2023-02-28T23:31:06.550Z,85.31
2023-02-28T23:33:35.513Z,85.25
2023-02-28T23:36:15.168Z,85.70
2023-02-28T23:38:50.496Z,85.92
2023-02-28T23:41:21.359Z,85.60
2023-02-28T23:43:54.284Z,86.02
2023-02-28T23:46:25.635Z,86.19
2023-02-28T23:48:52.601Z,86.10
2023-02-28T23:51:24.484Z,85.80
2023-02-28T23:53:53.417Z,85.93
2023-02-28T23:56:26.528Z,85.97
2023-02-28T23:58:55.494Z,86.11
